Aeroporto :
LOGIN :

Iscrizione | Disclaimer

   EN    FR    IT 

 










Sommario :    VFR   VFR Marginale   IFR   IFR Intensivo   IFR Molto Intensivo
Visibilità : 
Base nubi : 
>= 8 km
>= 3000ft
5 / 8 km
1000 / 3000 ft
1500m / 5 km
500 / 1000 ft
800 / 1500m
200 / 500 ft
< 800m
< 200 ft
Simboli :   Temporali  Nebbia  Neve Forte  Precipitazioni Forti  Vento > 20 kt
SIGMETs :   Varie  Temporali  Ghiacco  Turbolenza  Onda orograficha  Ceneri Vulcaniche






- Altitudine del aeroporto : 529 ft
- Codice IATA : CHR


LFLX - Chateauroux

ULTIMO METAR :
  • 210430Z AUTO 24008KT 9999 BKN005 OVC010 11/10 Q1015 NOSIG

METARs OBSOLETI :
  • 210400Z AUTO 22009KT 5000 BR OVC004 10/10 Q1015 BECMG BKN006
  • 210330Z AUTO 22009KT 5000 BR OVC004 10/10 Q1014 BECMG BKN006
  • 210300Z AUTO 22009KT 5000 -DZ BR OVC004 10/10 Q1014 TEMPO 2500 -RA BECMG BKN006
  • 210230Z AUTO 22009KT 5000 DZ BR OVC006 10/10 Q1014 TEMPO 2500 -RA BKN004
  • 210200Z AUTO 23008KT 8000 BKN006 OVC010 10/10 Q1013 TEMPO 2500 -RA BKN004

TAF TAF LFLX
Valido dal 21 a 00 ore il 22 a 06 ore UTC


202300Z 2100/2206 24008KT 9999 BKN006
TEMPO 2100/2104 2500 -RA BKN004
BECMG 2109/2112 VRB05KT SCT030
TEMPO 2112/2117 BKN040
BECMG 2117/2120 03005KT CAVOK
TEMPO 2120/2206 2500 BR
PROB40
TEMPO 2203/2206 0800 FG BKN003



MetMap, La meteo Aeronautica in un colpo d'occhio ! - Copyright ORBIFLY Dicembre 2007 - Disclaimer

ORBIFLY MET'MAP TEAM :

Programmazione e sviluppo : Alexandra Zaïnal
Concezione e sviluppo : Baudouin d'Aumeries
Co-Programmazione e sviluppo : Marc-Olivier Méhu
Supporto tecnico e logistico : Manuel Goepfert
Aiuto per la traduzione : Arnaldo La Scala

Contatto : metmap@orbifly.com




FONTI E CREDITI :

   NOAA